EDDLLEAL

Guest
Details From EDDL - Duesseldorf
To LEAL - Alicante
Flight Number -
Tags Generated
Created
Modified
Stats Distance 840 nm / 1,555 km
Max Altitude 0 ft / 0 m
Waypoints 5
Social Downloads 0
Likes 0
Share VATSIM

Download

Looking for another format? Having issues loading an existing format? Contact us
Advertisement - Login to hide

Notes

Generated

Route

EDDL MOU OKABI R2305 LEAL

ID Type Via Altitude Latitude Longitude Leg Dist Tot Dist Heading (true) Name
O EDDL APT - 0 ft / 0 m 51.28373˚ 6.74873˚ - 0 nm - -
MOU VOR - 0 ft / 0 m 46.70678˚ 3.63167˚ 301 nm 301 nm 205° / 203° MOULINS VOR-DME
OKABI FIX - 0 ft / 0 m 42.61611˚ 1.48361˚ 262 nm 563 nm 201° / 200° -
R2305 FIX - 0 ft / 0 m 38.28452˚ -0.57500˚ 276 nm 839 nm 201° / 199° -
O LEAL APT - 0 ft / 0 m 38.28452˚ -0.57500˚ 0 nm 839 nm 270° / 270° -

Altitude Profile

Advertisement - Login to hide

Weather


0- 5 10 15 20 25 30 35+ Temperature / ° C

Clouds and Precipitation
Forecast for 2018-05-25 18:00 UTC. Updated 2 hours ago

Ground ~20,000 ft ~40,000 ft Winds

EDDL

Details ICAO EDDL (DUS)
Name Duesseldorf
Region Germany - Civil
Timezone Europe/Berlin (UTC+2.0)
Stats Elevation 146 ft / 45 m (AMSL)
Location 51.289419° 6.766637°
Runways 2
Magnetic Variation 1.867° E

METAR

EDDL 251920Z 06006KT 9999 FEW040 BKN300 22/15 Q1017 NOSIG

Decode

TAF

TAF EDDL 251700Z 2518/2624 05004KT CAVOK BECMG 2607/2609 15009KT BECMG 2616/2619 14003KT

Decode

Departure Runways

ID Width Length Bearing (true) Bearing (mag) Surface Threshold Offset Overrun Length
05L 148 ft / 45 m 8,895 ft / 2,711 m 52.72° 50.85° Concrete 994 ft / 303 m 906 ft / 276 m
05R 148 ft / 45 m 9,858 ft / 3,005 m 52.68° 50.81° Concrete 984 ft / 300 m 659 ft / 201 m
23L 148 ft / 45 m 9,858 ft / 3,005 m 232.71° 230.84° Concrete 984 ft / 300 m 702 ft / 214 m
23R 148 ft / 45 m 8,895 ft / 2,711 m 232.75° 230.88° Concrete 971 ft / 296 m 928 ft / 283 m

LEAL

Details ICAO LEAL (ALC)
Name Alicante
Region Spain
Timezone Europe/Madrid (UTC+2.0)
Stats Elevation 141 ft / 43 m (AMSL)
Location 38.282169° -0.558157°
Runways 1
Magnetic Variation 0.233° E

METAR

LEAL 251900Z 08010KT 9999 FEW040 20/18 Q1012 NOSIG

Decode

TAF

TAF TAF LEAL 251700Z 2518/2618 09010KT 9999 FEW030 TX26/2612Z TN17/2606Z TEMPO 2522/2607 02008KT

Decode

Destination Runways

ID Width Length Bearing (true) Bearing (mag) Surface Threshold Offset Overrun Length
10 148 ft / 45 m 9,799 ft / 2,987 m 100.07° 99.84° Asphalt 0 ft / 0 m 164 ft / 50 m
28 148 ft / 45 m 9,799 ft / 2,987 m 280.09° 279.86° Asphalt 0 ft / 0 m 197 ft / 60 m

Approach Navaids

Runway Type Ident Frequency Range Bearing (true) Bearing (mag) Slope Elevation
10 Localiser IAT 110.30 MHz 18 nm / 33 km 100.09° 99.86° - 29 ft / 9 m (AMSL)
10 Glidescope IAT 110.30 MHz 10 nm / 19 km 100.09° 99.86° 3.00° 129 ft / 39 m (AMSL)
10 DME IAT 110.30 MHz 18 nm / 33 km - - - 129 ft / 39 m (AMSL)

Popular Alternatives